createdAt,value
2022-08-10T00:04:50.472Z,7.00
2022-08-10T00:09:54.571Z,6.60
2022-08-10T00:14:57.610Z,6.00
2022-08-10T00:20:04.129Z,5.80
2022-08-10T00:25:12.864Z,6.00
2022-08-10T00:30:15.633Z,6.00
2022-08-10T00:35:18.394Z,5.00
2022-08-10T00:40:36.964Z,6.00
2022-08-10T00:45:40.812Z,5.25
2022-08-10T00:50:43.616Z,6.00
2022-08-10T00:57:10.048Z,5.25
2022-08-10T01:01:23.505Z,6.20
2022-08-10T01:06:42.489Z,5.00
2022-08-10T01:12:47.588Z,5.40
2022-08-10T01:17:21.872Z,5.00
2022-08-10T01:22:38.904Z,4.75
2022-08-10T01:27:55.808Z,4.50
2022-08-10T01:33:06.416Z,5.00
2022-08-10T01:38:14.243Z,6.00
2022-08-10T01:43:20.547Z,4.25
2022-08-10T01:48:32.137Z,5.60
2022-08-10T01:53:41.593Z,5.00
2022-08-10T01:58:47.301Z,5.00
2022-08-10T02:04:03.702Z,4.75
2022-08-10T02:09:10.206Z,5.60
2022-08-10T02:14:15.880Z,5.75
2022-08-10T02:19:24.361Z,4.00
2022-08-10T02:24:29.440Z,3.60
2022-08-10T02:29:33.585Z,4.00
2022-08-10T02:34:40.258Z,4.75
2022-08-10T02:39:43.479Z,4.50
2022-08-10T02:45:24.706Z,4.00
2022-08-10T02:50:25.276Z,5.20
2022-08-10T02:55:35.644Z,5.00
2022-08-10T03:00:43.729Z,5.00
2022-08-10T03:05:50.246Z,4.50
2022-08-10T03:10:55.788Z,3.75
2022-08-10T03:16:01.759Z,5.25
2022-08-10T03:21:11.428Z,5.50
2022-08-10T03:26:20.301Z,5.20
2022-08-10T03:31:23.755Z,6.20
2022-08-10T03:36:42.599Z,4.00
2022-08-10T03:41:53.615Z,6.20
2022-08-10T03:47:01.111Z,9.00
2022-08-10T03:52:06.750Z,8.00
2022-08-10T03:57:09.884Z,10.00
2022-08-10T04:02:46.987Z,8.80
2022-08-10T04:07:37.392Z,9.60
2022-08-10T04:12:40.112Z,9.80
2022-08-10T04:17:59.507Z,10.00
2022-08-10T04:23:10.046Z,8.00
2022-08-10T04:28:13.076Z,10.20
2022-08-10T04:33:21.292Z,10.80
2022-08-10T04:38:26.682Z,10.20
2022-08-10T04:43:29.491Z,10.40
2022-08-10T04:48:42.019Z,9.80
2022-08-10T04:54:04.864Z,9.80
2022-08-10T04:59:10.630Z,9.40
2022-08-10T05:04:36.308Z,9.80
2022-08-10T05:10:02.067Z,9.80
2022-08-10T05:15:00.395Z,9.00
2022-08-10T05:20:06.801Z,9.00
2022-08-10T05:25:13.611Z,9.00
2022-08-10T05:30:19.239Z,8.20
2022-08-10T05:35:22.005Z,9.00
2022-08-10T05:40:26.937Z,7.40
2022-08-10T05:45:29.847Z,8.00
2022-08-10T05:50:34.623Z,7.80
2022-08-10T05:55:38.790Z,7.50
2022-08-10T06:00:50.281Z,6.00
2022-08-10T06:05:55.424Z,6.50
2022-08-10T06:12:25.526Z,6.50
2022-08-10T06:16:26.542Z,5.25
2022-08-10T06:21:29.631Z,6.00
2022-08-10T06:26:33.782Z,6.50
2022-08-10T06:31:48.984Z,6.75
2022-08-10T06:36:54.266Z,7.00
2022-08-10T06:42:15.995Z,6.75
2022-08-10T06:47:23.588Z,6.50
2022-08-10T06:52:27.282Z,7.00
2022-08-10T06:57:35.189Z,7.50
2022-08-10T07:02:45.052Z,7.75
2022-08-10T07:07:49.509Z,7.00
2022-08-10T07:12:58.774Z,5.50
2022-08-10T07:18:03.069Z,8.00
2022-08-10T07:23:58.394Z,6.50
2022-08-10T07:28:34.550Z,7.20
2022-08-10T07:33:39.720Z,6.40
2022-08-10T07:38:44.928Z,7.00
2022-08-10T07:43:51.891Z,7.00
2022-08-10T07:49:00.601Z,6.50
2022-08-10T07:54:06.099Z,7.20
2022-08-10T07:59:12.937Z,7.00
2022-08-10T08:04:17.591Z,8.00
2022-08-10T08:09:22.087Z,7.80
2022-08-10T08:14:28.267Z,6.60
2022-08-10T08:19:38.018Z,7.00
2022-08-10T08:24:52.474Z,7.25
2022-08-10T08:29:57.280Z,6.20
2022-08-10T08:35:03.408Z,6.00
2022-08-10T08:40:10.241Z,4.50
2022-08-10T08:45:25.212Z,5.25
2022-08-10T08:50:37.896Z,5.75
2022-08-10T08:56:01.421Z,6.50
2022-08-10T09:01:24.497Z,6.50
2022-08-10T09:08:01.079Z,5.25
2022-08-10T09:12:48.749Z,5.75
2022-08-10T09:18:04.080Z,5.25
2022-08-10T09:23:15.185Z,5.00
2022-08-10T09:28:26.565Z,7.00
2022-08-10T09:36:28.903Z,5.50
2022-08-10T09:40:56.505Z,5.60
2022-08-10T09:44:58.176Z,5.75
2022-08-10T09:50:13.508Z,5.00
2022-08-10T09:56:17.952Z,6.00
2022-08-10T10:00:56.569Z,5.50
2022-08-10T10:06:09.942Z,6.25
2022-08-10T10:11:18.986Z,6.00
2022-08-10T10:16:43.040Z,5.25
2022-08-10T10:21:56.805Z,5.75
2022-08-10T10:27:04.424Z,6.50
2022-08-10T10:32:26.966Z,6.00
2022-08-10T10:38:01.151Z,5.50
2022-08-10T10:43:16.833Z,6.00
2022-08-10T10:48:28.873Z,6.20
2022-08-10T10:53:41.189Z,5.00
2022-08-10T10:58:54.886Z,6.50
2022-08-10T11:04:19.389Z,6.50
2022-08-10T11:10:05.077Z,6.00
2022-08-10T11:14:59.595Z,6.00
2022-08-10T11:20:12.808Z,6.00
2022-08-10T11:25:27.356Z,5.00
2022-08-10T11:30:37.953Z,6.50
2022-08-10T11:35:48.172Z,5.00
2022-08-10T11:41:14.549Z,5.25
2022-08-10T11:46:33.078Z,6.00
2022-08-10T11:51:44.328Z,6.00
2022-08-10T11:56:57.277Z,7.00
2022-08-10T12:02:07.517Z,5.00
2022-08-10T12:10:02.210Z,16.40
2022-08-10T12:12:42.794Z,23.00
2022-08-10T12:17:50.874Z,10.00
2022-08-10T12:22:58.270Z,9.00
2022-08-10T12:28:10.183Z,8.00
2022-08-10T12:33:22.082Z,9.00
2022-08-10T12:38:32.248Z,7.40
2022-08-10T12:44:05.021Z,7.00
2022-08-10T12:49:12.708Z,6.60
2022-08-10T12:54:32.402Z,8.00
2022-08-10T12:59:43.455Z,6.00
2022-08-10T13:04:50.879Z,6.00
2022-08-10T13:09:56.244Z,5.20
2022-08-10T13:15:45.002Z,5.00
2022-08-10T13:20:35.272Z,5.40
2022-08-10T13:25:43.092Z,5.40
2022-08-10T13:30:50.666Z,4.50
2022-08-10T13:35:58.165Z,5.00
2022-08-10T13:41:06.002Z,5.50
2022-08-10T13:46:22.617Z,5.50
2022-08-10T13:51:56.359Z,6.00
2022-08-10T13:56:53.022Z,5.00
2022-08-10T14:02:01.782Z,5.40
2022-08-10T14:07:05.596Z,4.60
2022-08-10T14:12:11.338Z,5.80
2022-08-10T14:17:19.883Z,4.50
2022-08-10T14:22:34.188Z,5.20
2022-08-10T14:28:01.606Z,4.00
2022-08-10T14:33:05.247Z,5.00
2022-08-10T14:38:13.492Z,4.25
2022-08-10T14:43:28.846Z,5.40
2022-08-10T14:48:39.752Z,5.00
2022-08-10T14:53:44.106Z,4.40
2022-08-10T14:58:58.825Z,4.80
2022-08-10T15:04:14.843Z,5.00
2022-08-10T15:09:20.665Z,4.25
2022-08-10T15:14:41.233Z,5.50
2022-08-10T15:20:02.326Z,4.00
2022-08-10T15:25:17.616Z,4.00
2022-08-10T15:30:29.473Z,3.00
2022-08-10T15:35:54.526Z,4.50
2022-08-10T15:40:59.779Z,4.00
2022-08-10T15:46:14.602Z,3.00
2022-08-10T15:51:28.184Z,3.75
2022-08-10T15:56:37.369Z,4.00
2022-08-10T16:02:14.399Z,3.00
2022-08-10T16:07:13.347Z,3.80
2022-08-10T16:12:29.137Z,3.80
2022-08-10T16:17:54.556Z,4.00
2022-08-10T16:23:03.443Z,3.50
2022-08-10T16:28:08.404Z,4.60
2022-08-10T16:33:15.081Z,3.50
2022-08-10T16:38:22.338Z,4.25
2022-08-10T16:43:25.985Z,4.00
2022-08-10T16:48:49.373Z,4.25
2022-08-10T16:53:56.314Z,4.00
2022-08-10T16:59:00.575Z,3.00
2022-08-10T17:04:10.127Z,3.00
2022-08-10T17:09:19.877Z,3.00
2022-08-10T17:14:25.063Z,2.50
2022-08-10T17:19:31.251Z,4.00
2022-08-10T17:24:41.658Z,3.00
2022-08-10T17:29:58.887Z,3.40
2022-08-10T17:35:10.484Z,2.75
2022-08-10T17:40:19.643Z,3.00
2022-08-10T17:45:46.443Z,2.00
2022-08-10T17:50:51.091Z,2.75
2022-08-10T17:55:58.784Z,3.00
2022-08-10T18:01:38.788Z,2.75
2022-08-10T18:06:28.588Z,2.50
2022-08-10T18:11:35.686Z,3.00
2022-08-10T18:16:43.744Z,2.50
2022-08-10T18:21:48.970Z,3.00
2022-08-10T18:26:55.674Z,3.00
2022-08-10T18:32:00.916Z,3.00
2022-08-10T18:37:08.072Z,4.00
2022-08-10T18:42:15.993Z,4.25
2022-08-10T18:47:26.822Z,3.75
2022-08-10T18:52:33.629Z,2.75
2022-08-10T18:57:51.879Z,3.25
2022-08-10T19:03:11.273Z,3.00
2022-08-10T19:09:47.271Z,3.00
2022-08-10T19:14:41.157Z,5.00
2022-08-10T19:19:52.082Z,4.00
2022-08-10T19:25:05.788Z,5.50
2022-08-10T19:30:14.339Z,6.20
2022-08-10T19:35:28.665Z,5.60
2022-08-10T19:40:44.070Z,6.60
2022-08-10T19:46:02.614Z,7.20
2022-08-10T19:51:14.651Z,7.00
2022-08-10T19:56:34.002Z,8.00
2022-08-10T20:01:56.055Z,8.20
2022-08-10T20:07:11.081Z,7.40
2022-08-10T20:12:20.116Z,8.60
2022-08-10T20:17:52.332Z,8.00
2022-08-10T20:23:05.830Z,10.00
2022-08-10T20:28:19.444Z,10.20
2022-08-10T20:33:32.834Z,9.40
2022-08-10T20:38:42.582Z,10.40
2022-08-10T20:43:59.161Z,9.40
2022-08-10T20:49:19.050Z,10.00
2022-08-10T20:54:23.740Z,9.60
2022-08-10T21:00:03.777Z,10.00
2022-08-10T21:05:17.681Z,9.40
2022-08-10T21:10:34.501Z,11.00
2022-08-10T21:15:55.439Z,10.00
2022-08-10T21:21:16.653Z,10.60
2022-08-10T21:26:29.680Z,9.40
2022-08-10T21:31:45.863Z,10.00
2022-08-10T21:36:56.696Z,9.20
2022-08-10T21:42:32.393Z,10.00
2022-08-10T21:48:17.364Z,9.60
2022-08-10T21:53:46.760Z,10.00
2022-08-10T21:59:12.678Z,10.60
2022-08-10T22:04:34.832Z,11.20
2022-08-10T22:10:04.057Z,10.40
2022-08-10T22:16:03.868Z,10.20
2022-08-10T22:21:26.969Z,10.40
2022-08-10T22:27:47.069Z,10.40
2022-08-10T22:33:06.435Z,10.00
2022-08-10T22:38:42.002Z,10.40
2022-08-10T22:44:03.766Z,12.00
2022-08-10T22:49:05.982Z,10.80
2022-08-10T22:54:33.785Z,11.00
2022-08-10T22:59:38.059Z,11.00
2022-08-10T23:04:48.137Z,12.00
2022-08-10T23:10:00.773Z,11.80
2022-08-10T23:15:26.316Z,12.20
2022-08-10T23:20:30.994Z,10.80
2022-08-10T23:25:43.754Z,10.60
2022-08-10T23:31:02.646Z,11.40
2022-08-10T23:36:32.234Z,11.00
2022-08-10T23:41:34.358Z,11.40
2022-08-10T23:46:40.843Z,11.00
2022-08-10T23:51:56.421Z,10.80
2022-08-10T23:57:02.182Z,10.80
